createdAt,value
2022-08-22T00:00:34.913Z,95.65
2022-08-22T00:03:07.177Z,87.46
2022-08-22T00:03:28.810Z,95.70
2022-08-22T00:06:17.779Z,95.80
2022-08-22T00:09:01.728Z,96.12
2022-08-22T00:11:42.133Z,96.11
2022-08-22T00:14:20.347Z,96.28
2022-08-22T00:16:58.703Z,96.33
2022-08-22T00:19:45.576Z,96.37
2022-08-22T00:22:23.475Z,96.57
2022-08-22T00:25:00.621Z,96.49
2022-08-22T00:27:36.180Z,96.81
2022-08-22T00:30:10.719Z,96.77
2022-08-22T00:32:45.944Z,97.05
2022-08-22T00:35:26.432Z,96.98
2022-08-22T00:38:05.507Z,97.08
2022-08-22T00:40:55.292Z,97.18
2022-08-22T00:43:57.432Z,97.25
2022-08-22T00:46:44.986Z,97.29
2022-08-22T00:49:32.895Z,97.35
2022-08-22T00:52:42.391Z,97.56
2022-08-22T00:55:39.475Z,97.58
2022-08-22T00:58:39.257Z,97.62
2022-08-22T01:01:12.356Z,97.87
2022-08-22T01:04:01.059Z,97.75
2022-08-22T01:06:42.813Z,97.84
2022-08-22T01:09:31.348Z,98.08
2022-08-22T01:12:25.624Z,98.00
2022-08-22T01:15:01.127Z,98.12
2022-08-22T01:18:04.251Z,98.07
2022-08-22T01:21:20.763Z,98.29
2022-08-22T01:24:25.937Z,98.28
2022-08-22T01:27:28.555Z,98.24
2022-08-22T01:30:20.132Z,98.31
2022-08-22T01:33:26.188Z,98.56
2022-08-22T01:36:21.500Z,98.51
2022-08-22T01:39:10.967Z,98.47
2022-08-22T01:42:05.226Z,98.43
2022-08-22T01:45:07.843Z,98.57
2022-08-22T01:47:43.216Z,98.54
2022-08-22T01:50:24.085Z,98.67
2022-08-22T01:53:04.298Z,98.69
2022-08-22T01:55:38.784Z,98.82
2022-08-22T01:58:19.735Z,98.56
2022-08-22T02:01:05.938Z,98.68
2022-08-22T02:03:40.548Z,98.70
2022-08-22T02:06:16.356Z,98.70
2022-08-22T02:08:56.190Z,98.52
2022-08-22T02:11:41.531Z,98.51
2022-08-22T02:14:25.708Z,98.52
2022-08-22T02:16:58.863Z,98.68
2022-08-22T02:19:38.160Z,98.50
2022-08-22T02:22:20.511Z,98.71
2022-08-22T02:25:04.554Z,98.68
2022-08-22T02:27:48.315Z,98.67
2022-08-22T02:30:21.677Z,98.62
2022-08-22T02:33:08.320Z,98.73
2022-08-22T02:35:45.148Z,98.90
2022-08-22T02:38:28.198Z,98.81
2022-08-22T02:41:12.716Z,98.79
2022-08-22T02:43:51.224Z,98.80
2022-08-22T02:46:28.675Z,98.94
2022-08-22T02:49:09.068Z,98.88
2022-08-22T02:51:47.773Z,98.95
2022-08-22T02:54:25.339Z,98.88
2022-08-22T02:57:05.217Z,98.94
2022-08-22T02:59:42.375Z,98.77
2022-08-22T03:02:31.368Z,98.95
2022-08-22T03:05:04.238Z,98.97
2022-08-22T03:07:45.188Z,98.93
2022-08-22T03:10:23.171Z,98.77
2022-08-22T03:13:05.865Z,98.85
2022-08-22T03:15:48.449Z,98.81
2022-08-22T03:18:25.711Z,98.77
2022-08-22T03:20:59.599Z,98.73
2022-08-22T03:23:39.551Z,98.66
2022-08-22T03:26:16.200Z,98.80
2022-08-22T03:29:00.146Z,98.70
2022-08-22T03:31:31.821Z,98.78
2022-08-22T03:34:22.483Z,98.62
2022-08-22T03:37:07.533Z,98.72
2022-08-22T03:40:02.869Z,98.58
2022-08-22T03:43:03.344Z,98.60
2022-08-22T03:46:13.059Z,98.54
2022-08-22T03:49:08.238Z,98.63
2022-08-22T03:51:52.044Z,98.64
2022-08-22T03:55:03.575Z,98.62
2022-08-22T03:58:04.398Z,98.53
2022-08-22T04:01:03.644Z,98.73
2022-08-22T04:04:05.354Z,98.62
2022-08-22T04:06:56.358Z,98.63
2022-08-22T04:09:47.612Z,98.54
2022-08-22T04:12:42.384Z,98.66
2022-08-22T04:15:48.831Z,98.59
2022-08-22T04:18:51.339Z,98.65
2022-08-22T04:21:51.088Z,98.68
2022-08-22T04:24:37.026Z,98.73
2022-08-22T04:27:15.496Z,98.72
2022-08-22T04:29:51.818Z,98.54
2022-08-22T04:32:28.137Z,98.77
2022-08-22T04:35:02.071Z,98.86
2022-08-22T04:37:42.115Z,98.69
2022-08-22T04:40:19.946Z,98.70
2022-08-22T04:42:55.739Z,98.80
2022-08-22T04:45:30.103Z,98.84
2022-08-22T04:48:06.749Z,98.90
2022-08-22T04:50:44.404Z,98.81
2022-08-22T04:53:33.854Z,99.21
2022-08-22T04:56:10.720Z,99.12
2022-08-22T04:58:47.725Z,99.23
2022-08-22T05:01:21.011Z,99.31
2022-08-22T05:03:58.168Z,99.41
2022-08-22T05:06:32.031Z,99.29
2022-08-22T05:09:12.976Z,99.44
2022-08-22T05:11:46.546Z,99.46
2022-08-22T05:14:21.536Z,99.68
2022-08-22T05:16:56.868Z,99.95
2022-08-22T05:19:32.292Z,99.99
2022-08-22T05:22:03.528Z,100.00
2022-08-22T05:24:40.339Z,100.00
2022-08-22T05:27:14.707Z,100.00
2022-08-22T05:29:49.640Z,100.00
2022-08-22T05:32:27.551Z,100.00
2022-08-22T05:35:01.360Z,99.78
2022-08-22T05:37:40.220Z,99.83
2022-08-22T05:40:20.339Z,99.80
2022-08-22T05:42:50.743Z,99.83
2022-08-22T05:45:21.967Z,100.00
2022-08-22T05:47:55.392Z,99.98
2022-08-22T05:50:37.162Z,100.00
2022-08-22T05:53:12.531Z,100.00
2022-08-22T05:55:58.219Z,100.00
2022-08-22T05:58:51.216Z,100.00
2022-08-22T06:01:30.366Z,100.00
2022-08-22T06:04:06.999Z,100.00
2022-08-22T06:06:42.834Z,100.00
2022-08-22T06:09:20.774Z,100.00
2022-08-22T06:12:00.742Z,100.00
2022-08-22T06:14:36.119Z,100.00
2022-08-22T06:17:14.948Z,100.00
2022-08-22T06:19:49.702Z,100.00
2022-08-22T06:22:23.859Z,100.00
2022-08-22T06:24:57.655Z,100.00
2022-08-22T06:27:32.043Z,100.00
2022-08-22T06:30:04.309Z,100.00
2022-08-22T06:32:59.051Z,100.00
2022-08-22T06:35:52.079Z,100.00
2022-08-22T06:38:23.173Z,100.00
2022-08-22T06:40:56.199Z,100.00
2022-08-22T06:43:29.364Z,100.00
2022-08-22T06:45:59.474Z,100.00
2022-08-22T06:48:29.901Z,100.00
2022-08-22T06:51:01.666Z,100.00
2022-08-22T06:53:42.344Z,100.00
2022-08-22T06:56:24.009Z,100.00
2022-08-22T06:59:02.139Z,100.00
2022-08-22T07:01:36.653Z,100.00
2022-08-22T07:04:09.023Z,100.00
2022-08-22T07:06:41.616Z,100.00
2022-08-22T07:09:22.308Z,99.77
2022-08-22T07:11:53.269Z,99.75
2022-08-22T07:14:33.096Z,99.68
2022-08-22T07:17:05.426Z,99.38
2022-08-22T07:19:38.613Z,99.28
2022-08-22T07:22:17.618Z,99.31
2022-08-22T07:24:53.634Z,99.14
2022-08-22T07:27:39.160Z,99.18
2022-08-22T07:30:15.617Z,99.24
2022-08-22T07:33:25.178Z,99.19
2022-08-22T07:35:55.964Z,98.90
2022-08-22T07:38:35.436Z,98.80
2022-08-22T07:41:13.135Z,98.45
2022-08-22T07:43:47.811Z,98.43
2022-08-22T07:46:31.549Z,98.37
2022-08-22T07:49:12.058Z,98.12
2022-08-22T07:51:46.800Z,97.96
2022-08-22T07:54:21.261Z,97.94
2022-08-22T07:56:59.767Z,97.76
2022-08-22T07:59:31.979Z,97.44
2022-08-22T08:02:09.896Z,97.47
2022-08-22T08:04:41.686Z,97.14
2022-08-22T08:07:14.543Z,96.91
2022-08-22T08:09:48.763Z,96.55
2022-08-22T08:12:22.133Z,96.51
2022-08-22T08:14:56.810Z,96.29
2022-08-22T08:17:32.563Z,96.10
2022-08-22T08:20:08.862Z,95.86
2022-08-22T08:22:40.880Z,95.43
2022-08-22T08:25:15.157Z,95.18
2022-08-22T08:27:57.581Z,95.20
2022-08-22T08:30:39.551Z,95.04
2022-08-22T08:33:25.788Z,94.86
2022-08-22T08:36:05.764Z,94.93
2022-08-22T08:38:43.480Z,94.95
2022-08-22T08:41:41.573Z,94.69
2022-08-22T08:44:24.005Z,94.41
2022-08-22T08:47:20.780Z,94.07
2022-08-22T08:50:20.842Z,93.69
2022-08-22T08:53:31.260Z,92.99
2022-08-22T08:56:06.840Z,92.38
2022-08-22T08:58:50.833Z,91.94
2022-08-22T09:01:41.235Z,90.99
2022-08-22T09:04:42.088Z,89.99
2022-08-22T09:07:38.013Z,89.60
2022-08-22T09:10:32.836Z,89.32
2022-08-22T09:13:44.461Z,88.86
2022-08-22T09:16:47.257Z,88.16
2022-08-22T09:19:52.525Z,87.80
2022-08-22T09:22:50.064Z,86.77
2022-08-22T09:25:29.662Z,86.17
2022-08-22T09:28:17.311Z,85.67
2022-08-22T09:34:24.144Z,84.84
2022-08-22T09:37:08.017Z,84.49
2022-08-22T09:39:52.751Z,84.44
2022-08-22T09:42:33.733Z,84.20
2022-08-22T09:45:33.869Z,83.75
2022-08-22T09:48:09.820Z,83.34
2022-08-22T09:50:54.561Z,83.20
2022-08-22T09:53:46.713Z,83.24
2022-08-22T09:56:26.620Z,83.10
2022-08-22T09:59:06.586Z,83.07
2022-08-22T10:01:42.964Z,83.01
2022-08-22T10:04:42.017Z,82.77
2022-08-22T10:07:31.225Z,82.73
2022-08-22T10:10:08.968Z,82.71
2022-08-22T10:12:53.145Z,82.43
2022-08-22T10:15:33.222Z,82.31
2022-08-22T10:18:17.393Z,81.82
2022-08-22T10:20:58.864Z,81.53
2022-08-22T10:23:35.853Z,81.13
2022-08-22T10:26:22.950Z,81.09
2022-08-22T10:29:05.243Z,80.80
2022-08-22T10:31:57.079Z,80.43
2022-08-22T10:34:35.633Z,80.38
2022-08-22T10:37:15.084Z,80.54
2022-08-22T10:39:49.650Z,80.29
2022-08-22T10:42:31.249Z,80.16
2022-08-22T10:45:23.944Z,79.81
2022-08-22T10:48:26.094Z,79.35
2022-08-22T10:51:02.230Z,78.68
2022-08-22T10:53:42.916Z,78.09
2022-08-22T10:56:16.564Z,77.63
2022-08-22T10:58:56.739Z,77.40
2022-08-22T11:01:37.490Z,77.31
2022-08-22T11:04:19.893Z,77.42
2022-08-22T11:07:12.922Z,77.70
2022-08-22T11:09:45.753Z,77.60
2022-08-22T11:12:28.245Z,77.51
2022-08-22T11:15:12.669Z,77.53
2022-08-22T11:18:22.370Z,77.75
2022-08-22T11:21:02.025Z,77.59
2022-08-22T11:23:48.414Z,77.47
2022-08-22T11:26:41.674Z,77.33
2022-08-22T11:29:44.201Z,77.24
2022-08-22T11:32:19.473Z,77.19
2022-08-22T11:34:58.834Z,76.96
2022-08-22T11:37:53.770Z,76.99
2022-08-22T11:40:35.169Z,77.12
2022-08-22T11:43:25.918Z,76.88
2022-08-22T11:46:00.929Z,76.68
2022-08-22T11:48:48.645Z,76.68
2022-08-22T11:51:34.248Z,76.81
2022-08-22T11:54:12.469Z,76.83
2022-08-22T11:56:51.381Z,76.96
2022-08-22T11:59:29.443Z,76.92
2022-08-22T12:02:06.042Z,77.05
2022-08-22T12:04:44.285Z,77.11
2022-08-22T12:07:20.981Z,77.08
2022-08-22T12:09:55.837Z,76.85
2022-08-22T12:12:33.868Z,76.66
2022-08-22T12:15:14.273Z,76.63
2022-08-22T12:18:21.787Z,76.39
2022-08-22T12:21:05.565Z,76.13
2022-08-22T12:23:55.829Z,75.79
2022-08-22T12:26:34.045Z,75.53
2022-08-22T12:29:33.439Z,75.27
2022-08-22T12:32:49.267Z,75.25
2022-08-22T12:35:32.109Z,75.39
2022-08-22T12:38:28.167Z,75.34
2022-08-22T12:41:35.404Z,75.16
2022-08-22T12:44:22.961Z,74.92
2022-08-22T12:47:09.213Z,75.07
2022-08-22T12:49:54.695Z,75.00
2022-08-22T12:52:51.857Z,75.29
2022-08-22T12:55:33.424Z,75.63
2022-08-22T12:58:14.459Z,75.49
2022-08-22T13:00:52.621Z,75.71
2022-08-22T13:03:29.642Z,75.82
2022-08-22T13:06:02.497Z,76.06
2022-08-22T13:08:37.149Z,76.08
2022-08-22T13:11:22.332Z,75.82
2022-08-22T13:13:57.680Z,76.04
2022-08-22T13:16:40.572Z,76.10
2022-08-22T13:19:22.402Z,76.42
2022-08-22T13:21:57.948Z,77.00
2022-08-22T13:24:38.883Z,77.43
2022-08-22T13:27:13.081Z,78.13
2022-08-22T13:29:50.330Z,78.61
2022-08-22T13:32:29.525Z,78.67
2022-08-22T13:35:01.102Z,79.02
2022-08-22T13:37:37.343Z,79.30
2022-08-22T13:40:11.682Z,79.73
2022-08-22T13:42:49.164Z,80.32
2022-08-22T13:45:24.709Z,80.44
2022-08-22T13:48:03.603Z,80.85
2022-08-22T13:50:53.942Z,81.20
2022-08-22T13:53:36.510Z,81.53
2022-08-22T13:56:15.975Z,81.65
2022-08-22T13:58:49.643Z,81.98
2022-08-22T14:01:28.773Z,81.99
2022-08-22T14:04:32.238Z,81.80
2022-08-22T14:07:23.817Z,81.93
2022-08-22T14:09:59.212Z,81.80
2022-08-22T14:12:50.143Z,82.09
2022-08-22T14:15:26.196Z,82.31
2022-08-22T14:18:04.911Z,82.34
2022-08-22T14:20:40.320Z,82.29
2022-08-22T14:23:13.491Z,82.31
2022-08-22T14:25:45.912Z,82.26
2022-08-22T14:28:27.838Z,82.50
2022-08-22T14:31:03.776Z,82.66
2022-08-22T14:33:39.976Z,82.96
2022-08-22T14:36:22.089Z,83.34
2022-08-22T14:38:57.904Z,83.43
2022-08-22T14:41:56.230Z,83.29
2022-08-22T14:44:28.245Z,83.28
2022-08-22T14:47:02.255Z,83.32
2022-08-22T14:49:49.698Z,83.56
2022-08-22T14:52:40.568Z,84.02
2022-08-22T14:55:23.604Z,84.54
2022-08-22T14:57:57.691Z,84.83
2022-08-22T15:00:31.649Z,85.13
2022-08-22T15:03:14.984Z,85.42
2022-08-22T15:05:48.784Z,85.66
2022-08-22T15:08:29.506Z,85.94
2022-08-22T15:11:26.020Z,85.79
2022-08-22T15:14:02.494Z,85.82
2022-08-22T15:16:36.134Z,86.04
2022-08-22T15:19:25.411Z,86.14
2022-08-22T15:22:13.681Z,86.27
2022-08-22T15:24:56.338Z,86.24
2022-08-22T15:27:28.573Z,86.18
2022-08-22T15:30:01.457Z,86.28
2022-08-22T15:32:41.729Z,86.04
2022-08-22T15:35:17.817Z,86.12
2022-08-22T15:38:00.039Z,86.07
2022-08-22T15:40:41.519Z,86.02
2022-08-22T15:43:23.082Z,86.15
2022-08-22T15:45:55.643Z,86.19
2022-08-22T15:48:32.399Z,86.40
2022-08-22T15:51:09.411Z,86.84
2022-08-22T15:54:13.151Z,86.90
2022-08-22T15:57:18.899Z,86.89
2022-08-22T15:59:59.132Z,87.27
2022-08-22T16:02:35.304Z,87.27
2022-08-22T16:05:24.489Z,87.59
2022-08-22T16:08:04.407Z,87.46
2022-08-22T16:10:40.726Z,87.72
2022-08-22T16:13:39.707Z,87.67
2022-08-22T16:16:12.717Z,87.71
2022-08-22T16:19:12.745Z,88.01
2022-08-22T16:22:08.720Z,88.03
2022-08-22T16:25:16.876Z,88.25
2022-08-22T16:27:59.178Z,88.46
2022-08-22T16:30:42.104Z,88.51
2022-08-22T16:33:18.443Z,88.68
2022-08-22T16:36:24.162Z,88.84
2022-08-22T16:38:57.791Z,88.98
2022-08-22T16:41:34.632Z,89.19
2022-08-22T16:44:48.168Z,89.35
2022-08-22T16:47:23.267Z,89.60
2022-08-22T16:50:00.560Z,89.63
2022-08-22T16:52:56.903Z,89.86
2022-08-22T16:55:52.013Z,90.20
2022-08-22T16:58:57.865Z,90.43
2022-08-22T17:01:59.342Z,90.65
2022-08-22T17:04:40.319Z,90.72
2022-08-22T17:07:23.422Z,90.86
2022-08-22T17:10:12.521Z,91.27
2022-08-22T17:12:58.282Z,91.25
2022-08-22T17:15:37.004Z,91.50
2022-08-22T17:18:41.192Z,91.70
2022-08-22T17:21:25.445Z,91.75
2022-08-22T17:24:03.052Z,91.90
2022-08-22T17:26:47.841Z,91.87
2022-08-22T17:29:23.999Z,92.03
2022-08-22T17:31:58.153Z,92.29
2022-08-22T17:34:38.181Z,92.47
2022-08-22T17:37:24.374Z,92.32
2022-08-22T17:40:12.951Z,92.55
2022-08-22T17:42:59.014Z,92.40
2022-08-22T17:45:38.115Z,92.54
2022-08-22T17:48:15.037Z,92.44
2022-08-22T17:50:51.925Z,92.63
2022-08-22T17:53:35.156Z,92.67
2022-08-22T17:56:15.604Z,92.57
2022-08-22T17:58:52.548Z,92.64
2022-08-22T18:01:38.753Z,92.75
2022-08-22T18:04:15.052Z,92.62
2022-08-22T18:06:56.258Z,92.83
2022-08-22T18:09:38.610Z,92.97
2022-08-22T18:12:18.549Z,93.14
2022-08-22T18:14:55.467Z,93.46
2022-08-22T18:17:34.072Z,93.53
2022-08-22T18:20:10.354Z,93.89
2022-08-22T18:22:48.745Z,94.10
2022-08-22T18:25:38.790Z,94.26
2022-08-22T18:28:15.655Z,94.40
2022-08-22T18:30:59.718Z,94.45
2022-08-22T18:33:36.002Z,94.81
2022-08-22T18:36:14.259Z,94.82
2022-08-22T18:38:54.492Z,95.01
2022-08-22T18:41:34.910Z,95.27
2022-08-22T18:44:13.407Z,95.45
2022-08-22T18:46:48.208Z,95.79
2022-08-22T18:49:43.381Z,95.88
2022-08-22T18:52:38.678Z,96.03
2022-08-22T18:55:28.375Z,96.22
2022-08-22T18:58:27.915Z,96.55
2022-08-22T19:01:10.547Z,96.56
2022-08-22T19:04:03.744Z,96.86
2022-08-22T19:06:49.519Z,96.96
2022-08-22T19:09:44.126Z,97.11
2022-08-22T19:12:27.906Z,97.10
2022-08-22T19:15:21.787Z,97.39
2022-08-22T19:18:26.576Z,97.41
2022-08-22T19:21:40.542Z,97.63
2022-08-22T19:24:13.384Z,97.77
2022-08-22T19:26:47.924Z,97.87
2022-08-22T19:30:02.413Z,97.90
2022-08-22T19:33:03.609Z,97.96
2022-08-22T19:36:00.616Z,97.93
2022-08-22T19:39:09.182Z,98.24
2022-08-22T19:41:47.990Z,98.35
2022-08-22T19:44:43.625Z,98.33
2022-08-22T19:47:34.962Z,98.42
2022-08-22T19:50:14.675Z,98.42
2022-08-22T19:52:58.075Z,98.76
2022-08-22T19:55:36.852Z,98.84
2022-08-22T19:58:13.062Z,98.94
2022-08-22T20:00:55.977Z,98.98
2022-08-22T20:03:44.698Z,98.90
2022-08-22T20:06:43.519Z,99.07
2022-08-22T20:09:26.953Z,98.98
2022-08-22T20:12:08.521Z,99.23
2022-08-22T20:14:43.027Z,99.16
2022-08-22T20:17:16.240Z,99.32
2022-08-22T20:22:47.146Z,99.08
2022-08-22T20:25:42.335Z,99.32
2022-08-22T20:28:29.962Z,99.17
2022-08-22T20:31:02.392Z,99.41
2022-08-22T20:33:36.359Z,99.34
2022-08-22T20:36:27.343Z,99.46
2022-08-22T20:39:04.508Z,99.50
2022-08-22T20:41:39.874Z,99.51
2022-08-22T20:44:16.052Z,99.37
2022-08-22T20:46:58.642Z,99.66
2022-08-22T20:49:31.695Z,99.55
2022-08-22T20:52:03.706Z,99.36
2022-08-22T20:54:38.611Z,99.45
2022-08-22T20:57:16.812Z,99.56
2022-08-22T20:59:54.752Z,99.17
2022-08-22T21:02:27.747Z,99.21
2022-08-22T21:05:03.296Z,99.13
2022-08-22T21:07:35.454Z,99.22
2022-08-22T21:10:23.121Z,99.10
2022-08-22T21:13:09.702Z,99.19
2022-08-22T21:15:42.094Z,99.37
2022-08-22T21:18:13.713Z,99.41
2022-08-22T21:20:44.135Z,99.64
2022-08-22T21:23:17.161Z,99.61
2022-08-22T21:25:59.733Z,99.50
2022-08-22T21:28:32.740Z,99.61
2022-08-22T21:31:10.295Z,99.75
2022-08-22T21:33:45.670Z,99.75
2022-08-22T21:36:19.123Z,99.79
2022-08-22T21:38:52.025Z,100.00
2022-08-22T21:41:34.981Z,100.00
2022-08-22T21:44:20.755Z,100.00
2022-08-22T21:46:50.498Z,100.00
2022-08-22T21:49:25.694Z,100.00
2022-08-22T21:51:55.919Z,100.00
2022-08-22T21:54:39.861Z,100.00
2022-08-22T21:57:34.461Z,100.00
2022-08-22T22:00:06.343Z,100.00
2022-08-22T22:02:39.605Z,100.00
2022-08-22T22:05:12.687Z,100.00
2022-08-22T22:07:45.788Z,100.00
2022-08-22T22:10:19.355Z,100.00
2022-08-22T22:12:53.516Z,100.00
2022-08-22T22:15:27.342Z,100.00
2022-08-22T22:17:58.206Z,100.00
2022-08-22T22:20:29.025Z,100.00
2022-08-22T22:22:59.015Z,100.00
2022-08-22T22:25:40.127Z,100.00
2022-08-22T22:28:17.589Z,100.00
2022-08-22T22:30:53.327Z,100.00
2022-08-22T22:33:24.096Z,100.00
2022-08-22T22:35:55.451Z,100.00
2022-08-22T22:38:25.877Z,100.00
2022-08-22T22:40:56.125Z,100.00
2022-08-22T22:43:28.492Z,100.00
2022-08-22T22:45:58.220Z,100.00
2022-08-22T22:48:27.976Z,100.00
2022-08-22T22:50:57.904Z,100.00
2022-08-22T22:53:38.032Z,100.00
2022-08-22T22:56:09.844Z,100.00
2022-08-22T22:58:43.029Z,100.00
2022-08-22T23:01:13.915Z,100.00
2022-08-22T23:03:44.381Z,100.00
2022-08-22T23:06:14.893Z,100.00
2022-08-22T23:08:45.037Z,100.00
2022-08-22T23:11:15.859Z,100.00
2022-08-22T23:13:48.483Z,100.00
2022-08-22T23:16:21.771Z,100.00
2022-08-22T23:18:51.513Z,100.00
2022-08-22T23:21:24.023Z,100.00
2022-08-22T23:23:56.256Z,100.00
2022-08-22T23:26:26.481Z,100.00
2022-08-22T23:28:59.189Z,100.00
2022-08-22T23:31:32.657Z,100.00
2022-08-22T23:34:05.948Z,100.00
2022-08-22T23:36:36.151Z,100.00
2022-08-22T23:39:07.427Z,100.00
2022-08-22T23:41:38.470Z,100.00
2022-08-22T23:44:13.636Z,100.00
2022-08-22T23:46:44.473Z,100.00
2022-08-22T23:49:14.874Z,100.00
2022-08-22T23:51:45.835Z,100.00
2022-08-22T23:54:16.980Z,100.00
2022-08-22T23:56:49.079Z,100.00
2022-08-22T23:59:24.392Z,100.00
